Webcam Flughafen St.Gallen-Altenrhein

Live-Bilder und Zeitraffer LSZR / ACH.

 

Live aus Altenrhein
LIVE
LSZR 191550Z 09003KT 9999 BKN033 04/03 Q1017 NOSIG RMK L
Zeitraffer heute
2019-11-19 00:14:36
LSZR 182250Z AUTO 10002KT CAVOK 03/02 Q1016